Time;durP1;ratioP1;P1;durP2;ratioP2;P2;SDS_P1;SDS_P2;PMS_P1;PMS_P2;Temp;Humidity;BMP_temperature;BMP_pressure;BME280_temperature;BME280_humidity;BME280_pressure;Samples;Min_cycle;Max_cycle;Signal;HPM_P1;HPM_P2
2023/10/14 00:01:28;;;;;;;0.28;0.15;;;14.20;99.90;;;;;;5061301;28;20032;-74
2023/10/14 00:03:55;;;;;;;2.20;0.20;;;14.20;99.90;;;;;;5046446;28;20098;-74
2023/10/14 00:06:22;;;;;;;2.17;0.20;;;14.20;99.90;;;;;;5061783;28;20033;-74
2023/10/14 00:08:48;;;;;;;0.98;0.30;;;14.20;99.90;;;;;;5043012;28;20024;-74
2023/10/14 00:11:18;;;;;;;0.22;0.20;;;14.20;99.90;;;;;;5059749;28;20036;-74
2023/10/14 00:13:49;;;;;;;1.77;0.28;;;14.10;99.90;;;;;;5045549;28;20115;-74
2023/10/14 00:18:49;;;;;;;0.32;0.20;;;14.10;99.90;;;;;;5063790;28;20044;-74
2023/10/14 00:21:15;;;;;;;0.95;0.30;;;14.10;99.90;;;;;;5060009;28;20059;-73
2023/10/14 00:23:40;;;;;;;2.55;0.30;;;14.00;99.90;;;;;;5045868;28;20521;-74
2023/10/14 00:26:14;;;;;;;1.52;0.40;;;14.00;99.90;;;;;;5060679;28;20481;-73
2023/10/14 00:28:46;;;;;;;1.92;0.30;;;13.90;99.90;;;;;;5057957;28;20770;-74
2023/10/14 00:31:15;;;;;;;5.32;1.25;;;13.90;99.90;;;;;;5059167;28;20043;-74
2023/10/14 00:33:42;;;;;;;2.42;0.47;;;13.90;99.90;;;;;;5046096;28;20090;-73
2023/10/14 00:36:10;;;;;;;3.15;0.40;;;13.70;99.90;;;;;;5096272;28;20575;-73
2023/10/14 00:38:44;;;;;;;1.83;0.20;;;13.70;99.90;;;;;;5058607;28;20040;-73
2023/10/14 00:41:10;;;;;;;0.38;0.22;;;13.60;99.90;;;;;;5058438;28;20482;-73
2023/10/14 00:43:36;;;;;;;1.60;0.50;;;13.50;99.90;;;;;;5059000;28;20045;-74
2023/10/14 00:46:14;;;;;;;2.40;0.52;;;13.50;99.90;;;;;;5044611;28;20100;-74
2023/10/14 00:48:41;;;;;;;1.85;0.55;;;13.40;99.90;;;;;;5060686;28;20502;-74
2023/10/14 00:51:13;;;;;;;2.63;0.50;;;13.40;99.90;;;;;;5051050;28;20405;-73
2023/10/14 00:53:40;;;;;;;2.17;0.50;;;13.30;99.90;;;;;;5094791;28;20421;-74
2023/10/14 00:56:10;;;;;;;3.25;0.43;;;13.30;99.90;;;;;;5044259;28;20408;-73
2023/10/14 00:58:40;;;;;;;1.08;0.30;;;13.30;99.90;;;;;;5057590;28;20052;-73
2023/10/14 01:01:07;;;;;;;1.65;0.40;;;13.40;99.90;;;;;;5060897;28;20040;-73
2023/10/14 01:03:33;;;;;;;1.50;0.60;;;13.30;99.90;;;;;;5074849;28;20053;-73
2023/10/14 01:06:15;;;;;;;3.25;0.73;;;13.30;99.90;;;;;;5060257;28;20052;-73
2023/10/14 01:08:43;;;;;;;3.53;0.50;;;13.20;99.90;;;;;;5045023;28;20054;-73
2023/10/14 01:11:09;;;;;;;4.90;0.60;;;13.20;99.90;;;;;;5059891;28;20086;-73
2023/10/14 01:13:34;;;;;;;2.55;0.40;;;13.30;99.90;;;;;;5059942;28;20045;-73
2023/10/14 01:16:08;;;;;;;1.90;0.43;;;13.30;99.90;;;;;;5060729;28;20387;-73
2023/10/14 01:18:37;;;;;;;3.33;0.60;;;13.20;99.90;;;;;;5059569;28;20043;-73
2023/10/14 01:21:03;;;;;;;2.28;0.47;;;13.20;99.90;;;;;;5056779;28;20049;-73
2023/10/14 01:23:29;;;;;;;3.08;0.32;;;13.10;99.90;;;;;;5045854;28;20128;-73
2023/10/14 01:25:57;;;;;;;3.88;0.50;;;13.10;99.90;;;;;;5056420;28;20578;-73
2023/10/14 01:28:30;;;;;;;1.85;0.52;;;13.20;99.90;;;;;;5046103;28;20040;-73
2023/10/14 01:31:35;;;;;;;3.05;0.50;;;13.00;99.90;;;;;;5044193;28;20114;-73
2023/10/14 01:34:07;;;;;;;3.42;0.47;;;13.10;99.90;;;;;;5044143;28;20036;-73
2023/10/14 01:36:37;;;;;;;2.58;0.30;;;13.10;99.90;;;;;;5059457;28;20515;-73
2023/10/14 01:39:14;;;;;;;3.42;0.68;;;13.00;99.90;;;;;;5062232;28;20093;-73
2023/10/14 01:41:39;;;;;;;1.02;0.45;;;13.00;99.90;;;;;;5037131;28;20124;-73
2023/10/14 01:44:05;;;;;;;5.95;0.52;;;13.00;99.90;;;;;;5055286;28;20044;-73
2023/10/14 01:46:36;;;;;;;2.38;0.43;;;12.90;99.90;;;;;;5093807;28;20049;-73
2023/10/14 01:49:15;;;;;;;2.55;0.50;;;12.90;99.90;;;;;;5061501;28;20639;-73
2023/10/14 01:51:41;;;;;;;5.32;0.60;;;12.90;99.90;;;;;;5060253;28;20051;-73
2023/10/14 01:54:09;;;;;;;2.38;0.63;;;12.80;99.90;;;;;;5056501;28;20041;-73
2023/10/14 01:56:37;;;;;;;5.95;0.85;;;12.80;99.90;;;;;;5043410;28;20468;-73
2023/10/14 01:59:03;;;;;;;1.48;0.40;;;12.80;99.90;;;;;;5060604;28;20043;-73
2023/10/14 02:01:34;;;;;;;5.32;0.85;;;12.70;99.90;;;;;;5043083;28;20045;-73
2023/10/14 02:03:59;;;;;;;3.08;0.57;;;12.70;99.90;;;;;;5042203;28;20491;-73
2023/10/14 02:06:30;;;;;;;5.90;0.85;;;12.70;99.90;;;;;;5057011;28;20044;-73
2023/10/14 02:09:00;;;;;;;5.60;0.57;;;12.70;99.90;;;;;;5062242;28;20048;-73
2023/10/14 02:11:35;;;;;;;5.30;0.55;;;12.70;99.90;;;;;;5043163;28;20041;-73
2023/10/14 02:14:08;;;;;;;1.90;0.43;;;12.70;99.90;;;;;;5094923;28;20052;-73
2023/10/14 02:16:41;;;;;;;3.60;0.73;;;12.70;99.90;;;;;;5064374;28;20522;-73
2023/10/14 02:19:18;;;;;;;3.35;0.50;;;12.70;99.90;;;;;;5059417;28;20086;-73
2023/10/14 02:21:44;;;;;;;3.80;0.60;;;12.70;99.90;;;;;;5078505;28;20037;-73
2023/10/14 02:24:10;;;;;;;3.83;0.50;;;12.60;99.90;;;;;;5059405;28;20662;-73
2023/10/14 02:26:38;;;;;;;2.33;0.52;;;12.60;99.90;;;;;;5044521;28;20045;-73
2023/10/14 02:29:06;;;;;;;3.30;1.05;;;12.60;99.90;;;;;;5060488;28;20178;-74
2023/10/14 02:31:38;;;;;;;2.63;0.60;;;12.60;99.90;;;;;;5060879;28;20049;-73
2023/10/14 02:34:07;;;;;;;1.13;0.30;;;12.50;99.90;;;;;;5047027;28;20036;-73
2023/10/14 02:36:42;;;;;;;3.70;0.45;;;12.50;99.90;;;;;;5061873;28;20128;-73
2023/10/14 02:39:17;;;;;;;6.20;0.63;;;12.50;99.90;;;;;;5063764;28;20059;-73
2023/10/14 02:41:45;;;;;;;0.77;0.32;;;12.40;99.90;;;;;;5097773;27;20035;-73
2023/10/14 02:46:45;;;;;;;0.50;0.20;;;12.30;99.90;;;;;;5063500;28;20044;-74
2023/10/14 02:49:14;;;;;;;0.40;0.10;;;12.30;99.90;;;;;;5065666;28;20110;-73
2023/10/14 02:51:43;;;;;;;0.00;0.00;;;12.30;99.90;;;;;;5046688;28;20044;-73
2023/10/14 02:54:26;;;;;;;0.85;0.20;;;12.30;99.90;;;;;;5060492;28;20405;-73
2023/10/14 02:56:58;;;;;;;0.30;0.20;;;12.20;99.90;;;;;;5062017;28;20457;-73
2023/10/14 02:59:43;;;;;;;0.30;0.08;;;12.20;99.90;;;;;;5042681;28;20028;-73
2023/10/14 03:04:42;;;;;;;1.10;0.25;;;12.20;99.90;;;;;;5063250;28;20046;-73
2023/10/14 03:07:08;;;;;;;2.92;0.40;;;12.10;99.90;;;;;;5045992;28;20040;-73
2023/10/14 03:09:34;;;;;;;1.70;0.38;;;12.10;99.90;;;;;;5063690;28;20067;-73
2023/10/14 03:12:01;;;;;;;1.65;0.20;;;12.00;99.90;;;;;;5046050;28;20470;-73
2023/10/14 03:14:29;;;;;;;0.43;0.25;;;12.00;99.90;;;;;;5062487;28;20052;-73
2023/10/14 03:16:55;;;;;;;0.70;0.20;;;11.90;99.90;;;;;;5045090;28;20115;-73
2023/10/14 03:19:20;;;;;;;8.32;0.47;;;11.90;99.90;;;;;;5047929;28;20186;-73
2023/10/14 03:21:58;;;;;;;0.90;0.30;;;11.80;99.90;;;;;;5046063;28;20041;-73
2023/10/14 03:24:32;;;;;;;1.20;0.35;;;11.80;99.90;;;;;;5061593;28;20040;-73
2023/10/14 03:27:04;;;;;;;0.30;0.25;;;11.80;99.90;;;;;;5095396;28;20123;-73
2023/10/14 03:29:29;;;;;;;0.47;0.20;;;11.70;99.90;;;;;;5096240;28;20482;-73
2023/10/14 03:31:56;;;;;;;0.50;0.25;;;11.80;99.90;;;;;;5061689;28;20552;-73
2023/10/14 03:34:30;;;;;;;6.43;0.40;;;11.80;99.90;;;;;;5074216;28;20025;-73
2023/10/14 03:37:00;;;;;;;4.90;0.40;;;11.80;99.90;;;;;;5045494;28;20537;-73
2023/10/14 03:39:41;;;;;;;1.45;0.82;;;11.70;99.90;;;;;;5049200;28;20037;-73
2023/10/14 03:42:15;;;;;;;8.45;0.57;;;11.70;99.90;;;;;;5076124;28;20037;-73
2023/10/14 03:44:47;;;;;;;0.22;0.13;;;11.70;99.90;;;;;;5040352;28;20044;-73
2023/10/14 03:47:16;;;;;;;0.28;0.17;;;11.60;99.90;;;;;;5092164;28;20047;-73
2023/10/14 03:49:55;;;;;;;0.52;0.40;;;11.60;99.90;;;;;;5064197;28;20127;-73
2023/10/14 03:52:22;;;;;;;0.88;0.22;;;11.60;99.90;;;;;;5058386;28;20055;-73
2023/10/14 03:54:50;;;;;;;1.55;0.30;;;11.50;99.90;;;;;;5045527;28;20032;-73
2023/10/14 03:57:19;;;;;;;0.45;0.30;;;11.50;99.90;;;;;;5060459;28;20454;-73
2023/10/14 03:59:48;;;;;;;0.10;0.10;;;11.50;99.90;;;;;;5062739;28;20041;-73
2023/10/14 04:02:22;;;;;;;1.15;0.25;;;11.50;99.90;;;;;;5093467;28;20039;-73
2023/10/14 04:04:57;;;;;;;1.45;0.32;;;11.50;99.90;;;;;;5043447;28;20166;-73
2023/10/14 04:07:28;;;;;;;2.00;0.68;;;11.50;99.90;;;;;;5061557;28;20041;-73
2023/10/14 04:09:58;;;;;;;6.82;0.50;;;11.40;99.90;;;;;;5076323;28;20161;-73
2023/10/14 04:12:32;;;;;;;0.43;0.28;;;11.40;99.90;;;;;;5061836;28;20045;-73
2023/10/14 04:15:15;;;;;;;1.35;0.20;;;11.40;99.90;;;;;;5060001;28;20040;-73
2023/10/14 04:17:48;;;;;;;1.23;0.13;;;11.40;99.90;;;;;;5056835;28;20040;-73
2023/10/14 04:20:29;;;;;;;4.85;0.30;;;11.30;99.90;;;;;;5057502;28;20574;-73
2023/10/14 04:22:55;;;;;;;2.47;0.38;;;11.30;99.90;;;;;;5044107;28;20028;-73
2023/10/14 04:25:38;;;;;;;2.65;0.40;;;11.30;99.90;;;;;;5045133;28;20371;-73
2023/10/14 04:30:42;;;;;;;1.55;0.32;;;11.30;99.90;;;;;;5059395;28;20048;-73
2023/10/14 04:33:34;;;;;;;1.45;0.20;;;11.30;99.90;;;;;;5046013;28;20745;-73
2023/10/14 04:38:38;;;;;;;2.20;0.57;;;11.30;99.90;;;;;;5060942;28;20055;-73
2023/10/14 04:41:13;;;;;;;0.20;0.10;;;11.30;99.90;;;;;;5058153;28;20052;-73
2023/10/14 04:46:16;;;;;;;1.25;0.25;;;11.20;99.90;;;;;;5061216;28;20045;-73
2023/10/14 04:48:50;;;;;;;0.63;0.17;;;11.20;99.90;;;;;;5061132;28;20037;-73
2023/10/14 04:51:18;;;;;;;13.05;0.52;;;11.10;99.90;;;;;;5044769;28;20045;-73
2023/10/14 04:53:45;;;;;;;1.73;0.30;;;11.10;99.90;;;;;;5062371;28;20036;-73
2023/10/14 04:56:11;;;;;;;0.15;0.10;;;11.20;99.90;;;;;;5059184;28;20449;-73
2023/10/14 04:58:40;;;;;;;0.15;0.10;;;11.10;99.90;;;;;;5060951;28;20032;-73
2023/10/14 05:01:10;;;;;;;1.20;0.38;;;11.10;99.90;;;;;;5062164;28;20042;-73
2023/10/14 05:03:36;;;;;;;2.22;0.57;;;11.10;99.90;;;;;;5058873;28;20067;-73
2023/10/14 05:08:46;;;;;;;2.38;0.40;;;11.10;99.90;;;;;;5061024;28;20045;-73
2023/10/14 05:11:19;;;;;;;5.32;0.28;;;11.10;99.90;;;;;;5042629;28;20047;-73
2023/10/14 05:13:53;;;;;;;0.20;0.10;;;11.10;99.90;;;;;;5056443;28;20054;-73
2023/10/14 05:16:22;;;;;;;1.45;0.20;;;11.10;99.90;;;;;;5046236;28;20033;-73
2023/10/14 05:19:06;;;;;;;9.15;0.60;;;11.10;99.90;;;;;;5046460;28;20478;-73
2023/10/14 05:21:43;;;;;;;0.00;0.00;;;11.10;99.90;;;;;;5094929;28;20052;-73
2023/10/14 05:24:11;;;;;;;1.58;0.40;;;11.10;99.90;;;;;;5094351;28;20509;-73
2023/10/14 05:26:46;;;;;;;0.40;0.28;;;11.10;99.90;;;;;;5059144;28;20036;-73
2023/10/14 05:29:19;;;;;;;9.23;0.88;;;11.10;99.90;;;;;;5059394;28;20036;-73
2023/10/14 05:31:47;;;;;;;2.63;0.13;;;11.10;99.90;;;;;;5058834;28;20485;-73
2023/10/14 05:34:17;;;;;;;0.38;0.10;;;11.10;99.90;;;;;;5076798;28;20489;-73
2023/10/14 05:36:43;;;;;;;1.20;0.30;;;11.10;99.90;;;;;;5061298;28;20203;-72
2023/10/14 05:39:11;;;;;;;0.00;0.00;;;11.00;99.90;;;;;;5061386;28;20116;-72
2023/10/14 05:41:38;;;;;;;0.35;0.25;;;11.10;99.90;;;;;;5061890;28;21152;-73
2023/10/14 05:44:07;;;;;;;1.38;0.35;;;11.00;99.90;;;;;;5065412;28;20481;-73
2023/10/14 05:46:33;;;;;;;2.28;0.17;;;11.00;99.90;;;;;;5044793;28;20051;-72
2023/10/14 05:49:01;;;;;;;1.02;0.40;;;11.00;99.90;;;;;;5057689;28;20829;-72
2023/10/14 05:51:27;;;;;;;0.65;0.20;;;11.00;99.90;;;;;;5045542;28;20464;-72
2023/10/14 05:53:52;;;;;;;2.45;0.52;;;11.00;99.90;;;;;;5060726;28;20502;-72
2023/10/14 05:56:19;;;;;;;2.92;0.60;;;11.00;99.90;;;;;;5058871;28;20040;-72
2023/10/14 05:58:48;;;;;;;0.30;0.10;;;10.90;99.90;;;;;;5059181;28;20182;-72
2023/10/14 06:01:19;;;;;;;2.55;0.30;;;11.00;99.90;;;;;;5059836;28;20151;-73
2023/10/14 06:03:45;;;;;;;1.65;0.38;;;10.90;99.90;;;;;;5040106;28;20036;-73
2023/10/14 06:06:15;;;;;;;2.25;0.30;;;11.00;99.90;;;;;;5040454;28;20040;-73
2023/10/14 06:08:46;;;;;;;1.75;0.30;;;10.90;99.90;;;;;;5047131;28;20061;-72
2023/10/14 06:11:13;;;;;;;1.05;0.30;;;11.00;99.90;;;;;;5063380;28;20044;-73
2023/10/14 06:13:38;;;;;;;0.03;0.03;;;11.00;99.90;;;;;;5047995;28;21840;-73
2023/10/14 06:16:12;;;;;;;0.52;0.43;;;11.00;99.90;;;;;;5062971;28;20064;-73
2023/10/14 06:18:39;;;;;;;0.40;0.10;;;10.90;99.90;;;;;;5063064;28;20043;-73
2023/10/14 06:21:08;;;;;;;0.75;0.30;;;11.00;99.90;;;;;;5071711;28;20047;-77
2023/10/14 06:23:34;;;;;;;0.65;0.30;;;10.90;99.90;;;;;;5045996;28;20036;-73
2023/10/14 06:25:59;;;;;;;1.48;0.20;;;10.90;99.90;;;;;;5058770;28;20601;-73
2023/10/14 06:28:27;;;;;;;1.48;0.47;;;10.90;99.90;;;;;;5057968;28;20052;-73
2023/10/14 06:30:53;;;;;;;3.03;0.30;;;10.90;99.90;;;;;;5056452;28;20062;-73
2023/10/14 06:33:26;;;;;;;2.83;0.30;;;10.90;99.90;;;;;;5061104;28;20579;-73
2023/10/14 06:35:52;;;;;;;0.45;0.20;;;10.90;99.90;;;;;;5041229;28;20086;-73
2023/10/14 06:38:19;;;;;;;0.43;0.10;;;10.90;99.90;;;;;;5093657;27;20418;-73
2023/10/14 06:40:54;;;;;;;3.92;0.22;;;10.90;99.90;;;;;;5048258;28;20560;-73
2023/10/14 06:43:22;;;;;;;0.43;0.20;;;10.90;99.90;;;;;;5040348;28;20028;-72
2023/10/14 06:45:51;;;;;;;0.80;0.25;;;10.90;99.90;;;;;;5055693;28;20040;-73
2023/10/14 06:48:17;;;;;;;2.05;0.20;;;10.90;99.90;;;;;;5061490;28;21773;-73
2023/10/14 06:50:47;;;;;;;1.88;0.17;;;11.00;99.90;;;;;;5062579;28;20028;-73
2023/10/14 06:53:18;;;;;;;2.03;0.40;;;11.00;99.90;;;;;;5041906;28;20064;-73
2023/10/14 06:55:44;;;;;;;0.43;0.30;;;11.00;99.90;;;;;;5043148;28;20606;-73
2023/10/14 06:58:11;;;;;;;0.57;0.30;;;11.00;99.90;;;;;;5042584;28;20028;-73
2023/10/14 07:00:38;;;;;;;0.40;0.30;;;11.10;99.90;;;;;;5093480;28;20063;-73
2023/10/14 07:03:15;;;;;;;2.60;0.32;;;11.00;99.90;;;;;;5057147;28;20353;-73
2023/10/14 07:05:56;;;;;;;0.93;0.32;;;11.10;99.90;;;;;;5038544;28;20063;-73
2023/10/14 07:08:24;;;;;;;5.68;1.13;;;11.10;99.90;;;;;;5059022;28;20486;-73
2023/10/14 07:10:51;;;;;;;1.13;0.25;;;11.10;99.90;;;;;;5051960;28;20040;-72
2023/10/14 07:13:18;;;;;;;4.63;0.85;;;11.10;99.90;;;;;;5059199;28;20474;-72
2023/10/14 07:15:44;;;;;;;4.10;0.25;;;11.10;99.90;;;;;;5071409;28;20352;-73
2023/10/14 07:18:13;;;;;;;7.03;0.35;;;11.20;99.90;;;;;;5058547;28;20036;-72
2023/10/14 07:20:39;;;;;;;0.10;0.10;;;11.20;99.90;;;;;;5059634;28;20401;-72
2023/10/14 07:23:06;;;;;;;1.17;0.17;;;11.20;99.90;;;;;;5058226;28;20037;-72
2023/10/14 07:25:40;;;;;;;1.15;0.35;;;11.20;99.90;;;;;;5040028;28;20048;-72
2023/10/14 07:28:13;;;;;;;0.55;0.25;;;11.20;99.90;;;;;;5072795;28;20044;-73
2023/10/14 07:30:45;;;;;;;0.10;0.10;;;11.30;99.90;;;;;;5056783;28;21014;-73
2023/10/14 07:33:14;;;;;;;2.63;0.30;;;11.30;99.90;;;;;;5062021;28;20040;-72
2023/10/14 07:35:42;;;;;;;2.60;0.40;;;11.30;99.90;;;;;;5042843;28;20089;-72
2023/10/14 07:38:08;;;;;;;0.93;0.25;;;11.30;99.90;;;;;;5052400;28;20032;-73
2023/10/14 07:40:34;;;;;;;0.38;0.38;;;11.40;99.90;;;;;;5061718;28;20588;-73
2023/10/14 07:43:10;;;;;;;1.27;0.50;;;11.40;99.90;;;;;;5058233;28;20120;-73
2023/10/14 07:45:37;;;;;;;;;;;11.40;99.90;;;;;;5060373;28;20048;-72
2023/10/14 07:48:08;;;;;;;4.75;0.50;;;11.50;99.90;;;;;;5090927;28;20014;-72
2023/10/14 07:50:38;;;;;;;0.98;0.22;;;11.50;99.90;;;;;;5061889;28;20063;-73
2023/10/14 07:53:08;;;;;;;2.03;0.40;;;11.50;99.90;;;;;;5045819;28;20450;-72
2023/10/14 07:55:40;;;;;;;2.90;0.43;;;11.60;99.90;;;;;;5057969;28;20045;-75
2023/10/14 07:58:08;;;;;;;2.35;0.20;;;11.60;99.90;;;;;;5057843;28;20036;-74
2023/10/14 08:00:48;;;;;;;0.15;0.10;;;11.60;99.90;;;;;;5043400;28;20589;-72
2023/10/14 08:03:16;;;;;;;1.15;0.20;;;11.70;99.90;;;;;;5055503;28;20044;-73
2023/10/14 08:05:44;;;;;;;8.40;0.80;;;11.70;99.90;;;;;;5054708;28;20036;-73
2023/10/14 08:08:11;;;;;;;3.40;0.32;;;11.70;99.90;;;;;;5052866;28;20047;-76
2023/10/14 08:10:45;;;;;;;1.95;0.68;;;11.80;99.90;;;;;;5086652;28;20805;-78
2023/10/14 08:13:12;;;;;;;4.95;0.40;;;11.80;99.90;;;;;;5063163;28;20043;-83
2023/10/14 08:15:38;;;;;;;8.98;0.40;;;11.80;99.90;;;;;;5046499;28;20055;-79
2023/10/14 08:18:05;;;;;;;1.27;0.32;;;11.90;99.90;;;;;;5053570;28;20036;-86
2023/10/14 08:20:31;;;;;;;0.65;0.32;;;11.90;99.90;;;;;;5071585;28;20032;-73
2023/10/14 08:22:58;;;;;;;0.22;0.10;;;12.00;99.90;;;;;;5032026;28;20438;-75
2023/10/14 08:25:28;;;;;;;3.47;0.40;;;12.00;99.90;;;;;;5054125;28;20103;-76
2023/10/14 08:27:55;;;;;;;1.92;0.47;;;12.10;99.90;;;;;;5049849;28;20084;-74
2023/10/14 08:30:24;;;;;;;1.75;0.68;;;12.10;99.90;;;;;;5054283;28;21900;-74
2023/10/14 08:32:52;;;;;;;2.92;0.10;;;12.20;99.90;;;;;;5032073;28;20041;-74
2023/10/14 08:35:19;;;;;;;0.82;0.60;;;12.20;99.90;;;;;;5084665;28;20036;-74
2023/10/14 08:37:50;;;;;;;2.95;0.20;;;12.20;99.90;;;;;;5052573;28;20036;-74
2023/10/14 08:40:17;;;;;;;2.20;0.28;;;12.20;99.90;;;;;;5058366;28;20043;-74
2023/10/14 08:42:51;;;;;;;3.85;0.35;;;12.30;99.90;;;;;;5048950;28;20144;-74
2023/10/14 08:45:23;;;;;;;4.85;0.55;;;12.30;99.90;;;;;;5053339;28;20046;-74
2023/10/14 08:47:50;;;;;;;0.40;0.30;;;12.40;99.90;;;;;;5071214;28;20036;-74
2023/10/14 08:50:18;;;;;;;1.30;0.40;;;12.40;99.90;;;;;;5059035;28;20055;-74
2023/10/14 08:52:45;;;;;;;0.63;0.20;;;12.40;99.90;;;;;;5095283;28;20185;-74
2023/10/14 08:55:19;;;;;;;3.05;0.52;;;12.40;99.90;;;;;;5059064;28;20396;-74
2023/10/14 08:57:45;;;;;;;3.75;0.52;;;12.50;99.90;;;;;;5061636;28;20513;-74
2023/10/14 09:00:30;;;;;;;5.70;0.77;;;12.50;99.90;;;;;;5060097;28;20257;-74
2023/10/14 09:03:00;;;;;;;0.55;0.10;;;12.60;99.90;;;;;;5036801;28;20056;-74
2023/10/14 09:05:26;;;;;;;2.00;0.57;;;12.60;99.90;;;;;;5062290;28;20544;-74
2023/10/14 09:07:55;;;;;;;5.47;0.43;;;12.70;99.90;;;;;;5043827;28;20119;-74
2023/10/14 09:10:24;;;;;;;2.08;0.40;;;12.70;99.90;;;;;;5086489;28;20049;-74
2023/10/14 09:13:03;;;;;;;1.35;0.30;;;12.80;99.90;;;;;;5078519;28;20052;-74
2023/10/14 09:15:31;;;;;;;0.63;0.32;;;12.80;99.90;;;;;;5031809;28;20055;-73
2023/10/14 09:17:57;;;;;;;0.30;0.30;;;12.80;99.90;;;;;;5086718;28;20382;-73
2023/10/14 09:20:27;;;;;;;0.08;0.08;;;12.70;99.90;;;;;;5036623;28;20366;-73
2023/10/14 09:23:14;;;;;;;3.08;0.45;;;12.70;99.90;;;;;;5050747;28;20059;-73
2023/10/14 09:25:52;;;;;;;0.88;0.20;;;12.80;99.90;;;;;;5049082;28;20490;-73
2023/10/14 09:28:20;;;;;;;0.32;0.10;;;12.80;99.90;;;;;;5053734;28;20047;-73
2023/10/14 09:30:49;;;;;;;3.78;0.52;;;12.70;99.90;;;;;;5044906;28;20604;-74
2023/10/14 09:33:34;;;;;;;1.75;0.20;;;12.70;99.90;;;;;;5046271;28;20056;-73
2023/10/14 09:36:18;;;;;;;2.33;0.38;;;12.60;99.90;;;;;;5046795;28;21537;-72
2023/10/14 09:38:51;;;;;;;0.22;0.10;;;12.60;99.90;;;;;;5052697;28;20116;-73
2023/10/14 09:41:17;;;;;;;0.10;0.10;;;12.50;99.90;;;;;;5039600;28;20138;-73
2023/10/14 09:43:43;;;;;;;0.57;0.22;;;12.50;99.90;;;;;;5058438;28;20561;-73
2023/10/14 09:46:12;;;;;;;1.67;0.20;;;12.50;99.90;;;;;;5039123;28;20487;-73
2023/10/14 09:48:39;;;;;;;0.38;0.10;;;12.50;99.90;;;;;;5054158;28;20490;-72
2023/10/14 09:51:06;;;;;;;0.55;0.20;;;12.50;99.90;;;;;;5054547;28;20076;-72
2023/10/14 09:53:33;;;;;;;2.15;0.28;;;12.60;99.90;;;;;;5050691;28;20090;-72
2023/10/14 09:56:04;;;;;;;2.90;0.30;;;12.70;99.90;;;;;;5054132;28;20041;-72
2023/10/14 09:58:34;;;;;;;4.05;0.40;;;12.80;99.90;;;;;;5061337;28;20032;-72
2023/10/14 10:01:05;;;;;;;0.88;0.45;;;12.80;99.90;;;;;;5035714;28;20033;-72
2023/10/14 10:03:51;;;;;;;0.30;0.20;;;13.00;99.90;;;;;;5054693;28;20040;-72
2023/10/14 10:06:35;;;;;;;0.45;0.20;;;13.10;99.90;;;;;;5068560;28;20051;-72
2023/10/14 10:09:38;;;;;;;0.55;0.20;;;13.30;99.90;;;;;;5051831;28;20626;-72
2023/10/14 10:12:08;;;;;;;0.40;0.20;;;13.30;99.90;;;;;;5083403;28;20063;-72
2023/10/14 10:14:43;;;;;;;6.32;0.30;;;13.10;99.90;;;;;;5056623;28;20518;-72
2023/10/14 10:17:11;;;;;;;1.55;0.15;;;12.90;99.90;;;;;;5058254;28;20063;-72
2023/10/14 10:20:16;;;;;;;1.55;0.30;;;12.80;99.90;;;;;;5055865;28;20040;-72
2023/10/14 10:22:52;;;;;;;0.20;0.00;;;12.70;99.90;;;;;;5055732;28;20608;-72
2023/10/14 10:25:21;;;;;;;1.25;0.20;;;12.80;99.90;;;;;;5052722;28;21203;-72
2023/10/14 10:27:50;;;;;;;0.65;0.13;;;12.80;99.90;;;;;;5088560;28;20041;-72
2023/10/14 10:30:19;;;;;;;0.75;0.20;;;12.80;99.90;;;;;;5054999;28;20539;-72
2023/10/14 10:32:50;;;;;;;1.05;0.10;;;13.00;99.90;;;;;;5071315;28;20147;-72
2023/10/14 10:35:20;;;;;;;0.28;0.10;;;13.10;99.90;;;;;;5045424;28;20513;-74
2023/10/14 10:37:57;;;;;;;0.82;0.28;;;13.10;99.90;;;;;;5032503;28;20036;-74
2023/10/14 10:40:27;;;;;;;1.95;0.00;;;12.40;99.90;;;;;;5057872;28;20032;-75
2023/10/14 10:42:56;;;;;;;0.65;0.10;;;11.70;99.90;;;;;;5082593;28;20045;-75
2023/10/14 10:45:32;;;;;;;1.05;0.20;;;11.30;99.90;;;;;;5047154;28;20097;-74
2023/10/14 10:48:14;;;;;;;0.73;0.35;;;11.00;99.90;;;;;;5054469;28;20061;-75
2023/10/14 10:50:40;;;;;;;0.20;0.20;;;10.90;99.90;;;;;;5091567;28;20071;-75
2023/10/14 10:53:10;;;;;;;0.32;0.10;;;10.80;99.90;;;;;;5062209;28;20646;-79
2023/10/14 10:55:41;;;;;;;0.47;0.25;;;10.70;99.90;;;;;;5058139;28;20398;-75
2023/10/14 10:58:11;;;;;;;0.13;0.08;;;10.60;99.90;;;;;;5042252;28;20044;-75
2023/10/14 11:00:38;;;;;;;0.20;0.00;;;10.50;99.90;;;;;;5056103;28;20135;-75
2023/10/14 11:03:05;;;;;;;0.63;0.17;;;10.40;99.90;;;;;;5042809;28;20060;-75
2023/10/14 11:05:33;;;;;;;0.20;0.17;;;10.40;99.90;;;;;;5045045;28;20033;-75
2023/10/14 11:08:00;;;;;;;0.00;0.00;;;10.40;99.90;;;;;;5039550;28;20036;-75
2023/10/14 11:10:28;;;;;;;0.68;0.30;;;10.30;99.90;;;;;;5040185;28;20045;-75
2023/10/14 11:13:00;;;;;;;0.65;0.00;;;10.30;99.90;;;;;;5056373;28;20048;-75
2023/10/14 11:15:27;;;;;;;0.08;0.08;;;10.40;99.90;;;;;;5060497;28;20048;-75
2023/10/14 11:17:56;;;;;;;4.65;0.50;;;10.40;99.90;;;;;;5054593;28;20478;-75
2023/10/14 11:20:24;;;;;;;0.17;0.17;;;10.40;99.90;;;;;;5036429;28;21348;-75
2023/10/14 11:22:50;;;;;;;1.10;0.32;;;10.50;99.90;;;;;;5085593;28;20055;-74
2023/10/14 11:25:18;;;;;;;2.15;0.20;;;10.60;99.90;;;;;;5057622;28;20037;-74
2023/10/14 11:27:47;;;;;;;0.80;0.10;;;10.70;99.90;;;;;;5086084;27;20052;-74
2023/10/14 11:30:14;;;;;;;0.63;0.10;;;10.80;99.90;;;;;;5066139;28;20043;-74
2023/10/14 11:32:51;;;;;;;5.22;0.30;;;10.80;99.90;;;;;;5057260;28;20040;-75
2023/10/14 11:35:24;;;;;;;0.00;0.00;;;11.00;99.90;;;;;;5059245;28;20477;-74
2023/10/14 11:38:00;;;;;;;0.25;0.10;;;11.10;99.90;;;;;;5055345;28;20627;-74
2023/10/14 11:40:36;;;;;;;0.35;0.20;;;11.00;99.90;;;;;;5059991;28;20498;-74
2023/10/14 11:43:03;;;;;;;0.63;0.15;;;10.80;99.90;;;;;;5057029;28;20032;-74
2023/10/14 11:45:35;;;;;;;0.63;0.10;;;10.70;99.90;;;;;;5060442;28;20036;-74
2023/10/14 11:48:01;;;;;;;0.15;0.00;;;10.70;99.90;;;;;;5058739;28;20036;-74
2023/10/14 11:50:28;;;;;;;0.00;0.00;;;10.60;99.90;;;;;;5061131;28;20036;-74
2023/10/14 11:52:56;;;;;;;2.97;0.52;;;10.60;99.90;;;;;;5055382;28;20119;-74
2023/10/14 11:55:24;;;;;;;0.40;0.20;;;10.60;99.90;;;;;;5041838;28;20045;-75
2023/10/14 11:57:50;;;;;;;1.58;0.20;;;10.70;99.90;;;;;;5060582;28;20089;-74
2023/10/14 12:00:20;;;;;;;0.10;0.00;;;10.80;99.90;;;;;;5043605;28;20037;-76
2023/10/14 12:02:47;;;;;;;1.40;0.10;;;10.90;99.90;;;;;;5059963;28;20086;-74
2023/10/14 12:05:16;;;;;;;0.63;0.20;;;11.10;99.90;;;;;;5091262;27;20124;-74
2023/10/14 12:07:51;;;;;;;0.52;0.10;;;11.20;99.90;;;;;;5053810;28;20044;-72
2023/10/14 12:10:17;;;;;;;2.42;0.13;;;11.30;99.90;;;;;;5060328;28;20494;-73
2023/10/14 12:12:43;;;;;;;0.00;0.00;;;11.40;99.90;;;;;;5060248;28;20048;-73
2023/10/14 12:15:09;;;;;;;1.45;0.40;;;11.50;99.90;;;;;;5056519;28;20162;-73
2023/10/14 12:17:35;;;;;;;0.82;0.35;;;11.60;99.90;;;;;;5059522;28;20497;-73
2023/10/14 12:20:10;;;;;;;0.75;0.10;;;11.70;99.90;;;;;;5060412;28;20033;-73
2023/10/14 12:22:41;;;;;;;;;;;11.70;99.90;;;;;;5051603;28;20054;-73
2023/10/14 12:25:08;;;;;;;4.18;0.22;;;11.80;99.90;;;;;;5069921;28;20333;-73
2023/10/14 12:27:34;;;;;;;1.45;0.22;;;11.80;99.90;;;;;;5076964;28;20484;-73
2023/10/14 12:30:00;;;;;;;1.08;0.20;;;11.90;99.90;;;;;;5067661;28;20040;-73
2023/10/14 12:32:32;;;;;;;1.00;0.20;;;12.00;99.90;;;;;;5100990;28;20409;-73
2023/10/14 12:35:04;;;;;;;0.32;0.20;;;11.80;99.90;;;;;;5107723;27;20137;-73
2023/10/14 12:37:30;;;;;;;2.17;0.65;;;11.80;99.90;;;;;;5068119;28;20047;-73
2023/10/14 12:39:56;;;;;;;1.35;0.45;;;11.70;99.90;;;;;;5068852;28;20135;-73
2023/10/14 12:42:44;;;;;;;2.70;0.35;;;11.60;99.90;;;;;;5060230;28;20036;-72
2023/10/14 12:45:13;;;;;;;0.65;0.20;;;11.60;99.90;;;;;;5066018;28;20041;-73
2023/10/14 12:47:46;;;;;;;4.47;0.30;;;11.60;99.90;;;;;;5070331;28;20055;-72
2023/10/14 12:50:19;;;;;;;2.80;0.32;;;11.60;99.90;;;;;;5082989;28;20036;-72
2023/10/14 12:52:59;;;;;;;2.22;0.50;;;11.60;99.90;;;;;;5081755;28;20040;-72
2023/10/14 12:55:30;;;;;;;2.53;0.43;;;11.60;99.90;;;;;;5076235;28;20374;-72
2023/10/14 12:57:58;;;;;;;2.22;0.35;;;11.60;99.90;;;;;;5075562;28;20037;-73
2023/10/14 13:00:30;;;;;;;2.78;0.50;;;11.60;99.90;;;;;;5068575;28;20532;-73
2023/10/14 13:03:00;;;;;;;0.40;0.25;;;11.70;99.90;;;;;;5067578;28;20032;-73
2023/10/14 13:05:27;;;;;;;1.08;0.25;;;11.70;99.90;;;;;;5067716;28;20570;-72
2023/10/14 13:07:54;;;;;;;0.55;0.28;;;11.80;99.90;;;;;;5066950;28;20078;-72
2023/10/14 13:10:24;;;;;;;2.97;0.20;;;11.80;99.90;;;;;;5066068;28;20254;-73
2023/10/14 13:12:57;;;;;;;1.10;0.43;;;11.90;99.90;;;;;;5081872;28;20040;-72
2023/10/14 13:15:28;;;;;;;1.73;0.17;;;11.90;99.90;;;;;;5065152;28;20037;-72
2023/10/14 13:18:00;;;;;;;1.05;0.30;;;11.90;99.90;;;;;;5063764;28;20068;-72
2023/10/14 13:20:26;;;;;;;0.35;0.13;;;11.90;99.90;;;;;;5068700;28;20036;-72
2023/10/14 13:22:57;;;;;;;4.57;0.68;;;12.00;99.90;;;;;;5074134;28;20036;-73